Time,TemperatureF,DewpointF,PressureIn,WindDirection,WindDirectionDegrees,WindSpeedMPH,WindSpeedGustMPH,Humidity,HourlyPrecipIn,Conditions,Clouds,dailyrainin,SoftwareType,DateUTC
2013-09-20 00:08:00,57.4,56.0,30.03,WSW,238,3.0,-999.0,94,-99.99,,,0.00,weatherlink.com 1.10,2013-09-20 04:08:00,
2013-09-20 00:23:00,57.6,56.0,30.03,WSW,238,1.0,-999.0,94,-99.99,,,0.00,weatherlink.com 1.10,2013-09-20 04:23:00,
2013-09-20 00:38:00,57.2,55.0,30.02,WSW,238,1.0,-999.0,93,-99.99,,,0.00,weatherlink.com 1.10,2013-09-20 04:38:00,
2013-09-20 00:53:00,57.2,56.0,30.02,WSW,238,0.0,-999.0,94,-99.99,,,0.00,weatherlink.com 1.10,2013-09-20 04:53:00,
2013-09-20 01:08:00,57.1,55.0,30.02,WSW,238,2.0,-999.0,94,-99.99,,,0.00,weatherlink.com 1.10,2013-09-20 05:08:00,
2013-09-20 01:23:00,57.4,55.0,30.03,WSW,238,2.0,-999.0,93,-99.99,,,0.00,weatherlink.com 1.10,2013-09-20 05:23:00,
2013-09-20 01:38:00,57.3,55.0,30.03,WSW,238,2.0,-999.0,93,-99.99,,,0.00,weatherlink.com 1.10,2013-09-20 05:38:00,
2013-09-20 01:53:00,57.3,55.0,30.02,SW,234,5.0,-999.0,92,-99.99,,,0.00,weatherlink.com 1.10,2013-09-20 05:53:00,
2013-09-20 02:08:00,57.2,54.0,30.02,SW,229,2.0,-999.0,90,-99.99,,,0.00,weatherlink.com 1.10,2013-09-20 06:08:00,
2013-09-20 02:23:00,57.1,53.0,30.02,SW,232,5.0,-999.0,87,-99.99,,,0.00,weatherlink.com 1.10,2013-09-20 06:23:00,
2013-09-20 02:38:00,57.0,53.0,30.01,SW,231,5.0,-999.0,86,-99.99,,,0.00,weatherlink.com 1.10,2013-09-20 06:38:00,
2013-09-20 02:53:00,57.0,53.0,30.01,SW,224,5.0,-999.0,85,-99.99,,,0.00,weatherlink.com 1.10,2013-09-20 06:53:00,
2013-09-20 03:08:00,56.8,52.0,30.01,SW,223,5.0,-999.0,85,-99.99,,,0.00,weatherlink.com 1.10,2013-09-20 07:08:00,
2013-09-20 03:23:00,56.6,52.0,30.01,SW,220,5.0,-999.0,85,-99.99,,,0.00,weatherlink.com 1.10,2013-09-20 07:23:00,
2013-09-20 03:38:00,56.7,52.0,30.00,SW,227,5.0,-999.0,83,-99.99,,,0.00,weatherlink.com 1.10,2013-09-20 07:38:00,
2013-09-20 03:53:00,56.7,52.0,30.01,SW,228,5.0,-999.0,83,-99.99,,,0.00,weatherlink.com 1.10,2013-09-20 07:53:00,
2013-09-20 04:08:00,56.7,52.0,30.00,WSW,238,4.0,-999.0,83,-99.99,,,0.00,weatherlink.com 1.10,2013-09-20 08:08:00,
2013-09-20 04:23:00,56.7,51.0,30.00,WSW,245,6.0,-999.0,82,-99.99,,,0.00,weatherlink.com 1.10,2013-09-20 08:23:00,
2013-09-20 04:38:00,56.8,51.0,30.00,SW,234,3.0,-999.0,81,-99.99,,,0.00,weatherlink.com 1.10,2013-09-20 08:38:00,
2013-09-20 04:53:00,57.1,51.0,30.00,WSW,237,7.0,-999.0,80,-99.99,,,0.00,weatherlink.com 1.10,2013-09-20 08:53:00,
2013-09-20 05:08:00,57.4,51.0,30.00,SW,227,7.0,-999.0,79,-99.99,,,0.00,weatherlink.com 1.10,2013-09-20 09:08:00,
2013-09-20 05:23:00,57.6,51.0,29.99,SW,236,4.0,-999.0,78,-99.99,,,0.00,weatherlink.com 1.10,2013-09-20 09:23:00,
2013-09-20 05:38:00,57.7,51.0,29.99,SW,230,6.0,-999.0,78,-99.99,,,0.00,weatherlink.com 1.10,2013-09-20 09:38:00,
2013-09-20 05:53:00,57.7,51.0,29.99,WSW,238,5.0,-999.0,77,-99.99,,,0.00,weatherlink.com 1.10,2013-09-20 09:53:00,
2013-09-20 06:08:00,57.5,51.0,29.99,SW,230,6.0,-999.0,78,-99.99,,,0.00,weatherlink.com 1.10,2013-09-20 10:08:00,
2013-09-20 06:23:00,57.4,51.0,29.99,WSW,242,4.0,-999.0,78,-99.99,,,0.00,weatherlink.com 1.10,2013-09-20 10:23:00,
2013-09-20 06:38:00,57.5,50.0,29.99,WSW,238,4.0,-999.0,77,-99.99,,,0.00,weatherlink.com 1.10,2013-09-20 10:38:00,
2013-09-20 06:53:00,57.5,50.0,29.99,WSW,252,3.0,-999.0,77,-99.99,,,0.00,weatherlink.com 1.10,2013-09-20 10:53:00,
2013-09-20 07:08:00,57.3,50.0,29.99,WSW,245,4.0,-999.0,77,-99.99,,,0.00,weatherlink.com 1.10,2013-09-20 11:08:00,
2013-09-20 07:23:00,57.3,50.0,29.99,West,276,5.0,-999.0,77,-99.99,,,0.00,weatherlink.com 1.10,2013-09-20 11:23:00,
2013-09-20 07:38:00,57.4,50.0,29.99,WSW,255,2.0,-999.0,76,-99.99,,,0.00,weatherlink.com 1.10,2013-09-20 11:38:00,
2013-09-20 07:53:00,57.5,50.0,29.99,West,262,1.0,-999.0,76,-99.99,,,0.00,weatherlink.com 1.10,2013-09-20 11:53:00,
2013-09-20 08:08:00,57.7,50.0,29.99,NE,55,1.0,-999.0,76,-99.99,,,0.00,weatherlink.com 1.10,2013-09-20 12:08:00,
2013-09-20 08:23:00,57.7,50.0,30.00,East,86,1.0,-999.0,75,-99.99,,,0.00,weatherlink.com 1.10,2013-09-20 12:23:00,
2013-09-20 08:38:00,58.0,50.0,29.99,WNW,292,5.0,-999.0,75,-99.99,,,0.00,weatherlink.com 1.10,2013-09-20 12:38:00,
2013-09-20 08:53:00,58.5,50.0,30.00,East,83,4.0,-999.0,74,-99.99,,,0.00,weatherlink.com 1.10,2013-09-20 12:53:00,
2013-09-20 09:08:00,58.8,51.0,30.00,East,80,1.0,-999.0,74,-99.99,,,0.00,weatherlink.com 1.10,2013-09-20 13:08:00,
2013-09-20 09:24:00,59.0,51.0,30.00,WSW,254,3.0,-999.0,74,-99.99,,,0.00,weatherlink.com 1.10,2013-09-20 13:24:00,
2013-09-20 09:39:00,59.8,52.0,29.99,NE,34,0.0,-999.0,74,-99.99,,,0.00,weatherlink.com 1.10,2013-09-20 13:39:00,
2013-09-20 09:54:00,61.0,53.0,29.99,WSW,245,4.0,-999.0,74,-99.99,,,0.00,weatherlink.com 1.10,2013-09-20 13:54:00,
2013-09-20 10:09:00,60.2,59.0,30.00,ENE,58,2.0,-999.0,94,-99.99,,,0.00,weatherlink.com 1.10,2013-09-20 14:09:00,
2013-09-20 10:24:00,60.8,59.0,30.00,WSW,242,1.0,-999.0,94,-99.99,,,0.00,weatherlink.com 1.10,2013-09-20 14:24:00,
2013-09-20 10:39:00,61.8,60.0,30.00,SW,228,0.0,-999.0,92,-99.99,,,0.00,weatherlink.com 1.10,2013-09-20 14:39:00,
2013-09-20 10:54:00,61.5,60.0,29.99,WNW,300,3.0,-999.0,93,-99.99,,,0.00,weatherlink.com 1.10,2013-09-20 14:54:00,
2013-09-20 11:09:00,65.7,62.0,29.99,West,260,1.0,-999.0,87,-99.99,,,0.00,weatherlink.com 1.10,2013-09-20 15:09:00,
2013-09-20 11:24:00,64.1,61.0,29.98,SSW,213,5.0,-999.0,88,-99.99,,,0.00,weatherlink.com 1.10,2013-09-20 15:24:00,
2013-09-20 11:39:00,62.9,60.0,29.98,WSW,242,2.0,-999.0,91,-99.99,,,0.00,weatherlink.com 1.10,2013-09-20 15:39:00,
2013-09-20 11:54:00,66.6,61.0,29.96,SW,232,5.0,-999.0,83,-99.99,,,0.00,weatherlink.com 1.10,2013-09-20 15:54:00,
2013-09-20 12:09:00,67.4,62.0,29.96,SSW,213,7.0,-999.0,82,-99.99,,,0.00,weatherlink.com 1.10,2013-09-20 16:09:00,
2013-09-20 12:24:00,65.5,61.0,29.96,West,259,6.0,-999.0,85,-99.99,,,0.00,weatherlink.com 1.10,2013-09-20 16:24:00,
2013-09-20 12:39:00,66.4,61.0,29.96,WSW,238,2.0,-999.0,83,-99.99,,,0.00,weatherlink.com 1.10,2013-09-20 16:39:00,
2013-09-20 12:54:00,65.0,61.0,29.97,SW,221,0.0,-999.0,88,-99.99,,,0.00,weatherlink.com 1.10,2013-09-20 16:54:00,
2013-09-20 13:09:00,63.4,60.0,29.96,ENE,78,5.0,-999.0,89,-99.99,,,0.00,weatherlink.com 1.10,2013-09-20 17:09:00,
2013-09-20 13:24:00,61.7,59.0,29.96,SW,217,0.0,-999.0,92,-99.99,,,0.00,weatherlink.com 1.10,2013-09-20 17:24:00,
2013-09-20 13:39:00,61.0,59.0,29.96,SW,227,2.0,-999.0,93,-99.99,,,0.17,weatherlink.com 1.10,2013-09-20 17:39:00,
2013-09-20 13:54:00,59.2,57.0,29.95,SW,219,6.0,-999.0,93,-99.99,,,0.48,weatherlink.com 1.10,2013-09-20 17:54:00,
2013-09-20 14:09:00,59.4,56.0,29.95,SW,220,1.0,-999.0,88,-99.99,,,0.50,weatherlink.com 1.10,2013-09-20 18:09:00,
2013-09-20 14:24:00,60.5,55.0,29.95,SW,220,1.0,-999.0,81,-99.99,,,0.50,weatherlink.com 1.10,2013-09-20 18:24:00,
2013-09-20 14:39:00,60.2,56.0,29.95,East,84,1.0,-999.0,86,-99.99,,,0.50,weatherlink.com 1.10,2013-09-20 18:39:00,
2013-09-20 14:54:00,60.8,56.0,29.94,ENE,76,1.0,-999.0,83,-99.99,,,0.50,weatherlink.com 1.10,2013-09-20 18:54:00,
2013-09-20 15:24:00,63.0,61.0,29.93,ENE,74,1.0,-999.0,92,-99.99,,,0.50,weatherlink.com 1.10,2013-09-20 19:24:00,
2013-09-20 15:39:00,63.2,62.0,29.92,ENE,78,0.0,-999.0,94,-99.99,,,0.50,weatherlink.com 1.10,2013-09-20 19:39:00,
2013-09-20 15:54:00,64.0,62.0,29.91,SE,133,0.0,-999.0,92,-99.99,,,0.50,weatherlink.com 1.10,2013-09-20 19:54:00,
2013-09-20 16:09:00,64.2,61.0,29.91,South,173,0.0,-999.0,90,-99.99,,,0.50,weatherlink.com 1.10,2013-09-20 20:09:00,
2013-09-20 16:24:00,67.4,63.0,29.91,SW,221,6.0,-999.0,86,-99.99,,,0.50,weatherlink.com 1.10,2013-09-20 20:24:00,
2013-09-20 16:39:00,65.6,62.0,29.91,SW,224,8.0,-999.0,89,-99.99,,,0.50,weatherlink.com 1.10,2013-09-20 20:39:00,
2013-09-20 16:54:00,67.6,63.0,29.91,SW,227,5.0,-999.0,86,-99.99,,,0.50,weatherlink.com 1.10,2013-09-20 20:54:00,
2013-09-20 17:09:00,68.6,61.0,29.90,WSW,245,2.0,-999.0,76,-99.99,,,0.50,weatherlink.com 1.10,2013-09-20 21:09:00,
2013-09-20 17:24:00,66.8,62.0,29.90,ENE,78,2.0,-999.0,84,-99.99,,,0.50,weatherlink.com 1.10,2013-09-20 21:24:00,
2013-09-20 17:39:00,63.3,61.0,29.89,East,90,2.0,-999.0,92,-99.99,,,0.50,weatherlink.com 1.10,2013-09-20 21:39:00,
2013-09-20 17:54:00,62.5,61.0,29.89,South,188,0.0,-999.0,94,-99.99,,,0.50,weatherlink.com 1.10,2013-09-20 21:54:00,
2013-09-20 18:09:00,62.8,61.0,29.89,South,182,4.0,-999.0,93,-99.99,,,0.50,weatherlink.com 1.10,2013-09-20 22:09:00,
2013-09-20 18:24:00,62.1,60.0,29.88,SE,124,4.0,-999.0,93,-99.99,,,0.50,weatherlink.com 1.10,2013-09-20 22:24:00,
2013-09-20 18:39:00,61.2,60.0,29.88,SSW,201,4.0,-999.0,94,-99.99,,,0.50,weatherlink.com 1.10,2013-09-20 22:39:00,
2013-09-20 18:54:00,60.8,59.0,29.89,WSW,252,4.0,-999.0,94,-99.99,,,0.50,weatherlink.com 1.10,2013-09-20 22:54:00,
2013-09-20 19:09:00,60.4,58.0,29.89,South,180,6.0,-999.0,93,-99.99,,,0.50,weatherlink.com 1.10,2013-09-20 23:09:00,
2013-09-20 19:24:00,60.3,58.0,29.89,SSE,151,2.0,-999.0,93,-99.99,,,0.50,weatherlink.com 1.10,2013-09-20 23:24:00,
2013-09-20 19:39:00,60.3,58.0,29.89,South,169,2.0,-999.0,92,-99.99,,,0.50,weatherlink.com 1.10,2013-09-20 23:39:00,
2013-09-20 20:09:00,59.7,56.0,29.89,South,190,4.0,-999.0,86,-99.99,,,0.50,weatherlink.com 1.10,2013-09-21 00:09:00,
2013-09-20 20:24:00,59.5,55.0,29.90,South,186,6.0,-999.0,84,-99.99,,,0.50,weatherlink.com 1.10,2013-09-21 00:24:00,
2013-09-20 20:39:00,59.4,55.0,29.90,South,175,4.0,-999.0,84,-99.99,,,0.50,weatherlink.com 1.10,2013-09-21 00:39:00,
2013-09-20 20:54:00,59.3,54.0,29.90,SSW,198,7.0,-999.0,82,-99.99,,,0.50,weatherlink.com 1.10,2013-09-21 00:54:00,
2013-09-20 21:09:00,59.0,54.0,29.90,South,179,2.0,-999.0,82,-99.99,,,0.50,weatherlink.com 1.10,2013-09-21 01:09:00,
2013-09-20 21:24:00,59.0,53.0,29.89,SE,140,2.0,-999.0,81,-99.99,,,0.50,weatherlink.com 1.10,2013-09-21 01:24:00,
2013-09-20 21:39:00,58.7,53.0,29.90,SE,145,6.0,-999.0,81,-99.99,,,0.50,weatherlink.com 1.10,2013-09-21 01:39:00,
2013-09-20 21:54:00,58.5,52.0,29.89,SW,224,2.0,-999.0,80,-99.99,,,0.50,weatherlink.com 1.10,2013-09-21 01:54:00,
2013-09-20 22:10:00,58.3,52.0,29.89,SSW,211,7.0,-999.0,80,-99.99,,,0.50,weatherlink.com 1.10,2013-09-21 02:10:00,
2013-09-20 22:25:00,58.0,52.0,29.88,SSW,197,5.0,-999.0,79,-99.99,,,0.50,weatherlink.com 1.10,2013-09-21 02:25:00,
2013-09-20 22:40:00,57.8,51.0,29.88,SSW,203,6.0,-999.0,79,-99.99,,,0.50,weatherlink.com 1.10,2013-09-21 02:40:00,
2013-09-20 22:55:00,57.7,51.0,29.87,South,178,5.0,-999.0,78,-99.99,,,0.50,weatherlink.com 1.10,2013-09-21 02:55:00,
2013-09-20 23:10:00,57.4,51.0,29.88,SSE,156,7.0,-999.0,78,-99.99,,,0.50,weatherlink.com 1.10,2013-09-21 03:10:00,
2013-09-20 23:25:00,57.1,50.0,29.87,SE,132,7.0,-999.0,78,-99.99,,,0.50,weatherlink.com 1.10,2013-09-21 03:25:00,
2013-09-20 23:40:00,56.8,50.0,29.88,SSE,167,4.0,-999.0,78,-99.99,,,0.50,weatherlink.com 1.10,2013-09-21 03:40:00,
2013-09-20 23:55:00,56.7,50.0,29.87,SSE,161,0.0,-999.0,77,-99.99,,,0.50,weatherlink.com 1.10,2013-09-21 03:55:00,